Air Navigation Services of Czech Republic  
Last data update:  27.02.2021 15:43:28 UTC česká verze
   METEO Page displayed:  27.02.2021 15:45:09 UTC  
vysvětlivky
METAR EDDB 271520Z 29010KT 9999 FEW018 BKN029 07/03 Q1037 NOSIG=
METAR EDDC 271520Z 30004KT 270V330 9999 FEW011 BKN023 04/03 Q1037 TEMPO BKN013=
METAR EDDE 271520Z VRB02KT 9999 FEW013 OVC022 05/02 Q1037 NOSIG=
METAR EDDF 271520Z 03011KT 9999 FEW024 08/01 Q1037 NOSIG=
METAR EDDM 271520Z 08005KT 050V110 9999 SCT040 06/M02 Q1035 NOSIG=
METAR EDDN 271520Z 34007KT 310V040 9999 FEW031 07/M01 Q1036 NOSIG=
METAR EDDP 271520Z 27007KT 9999 SCT007 OVC020 04/03 Q1038 TEMPO BKN008=
METAR EDQM 271520Z 03004KT 9999 BKN011 01/M01 Q1036=
METAR EPBY 271530Z 33010KT 9999 FEW035 08/M01 Q1033=
METAR EPGD 271530Z 32010KT 290V350 9999 FEW025 05/M01 Q1032=
METAR EPKK 271530Z 28009KT 9999 FEW030 BKN050 07/02 Q1031=
METAR EPKT 271530Z 30009KT 9999 SCT024 BKN042 06/01 Q1032=
METAR EPLL 271530Z 30011KT 270V330 9999 SCT035 08/M00 Q1031=
METAR EPPO 271530Z 30010KT 9999 FEW033 08/01 Q1034=
METAR EPRZ 271530Z 31012KT 9999 -SHRA BKN021CB 06/02 Q1029=
METAR EPWA 271530Z 33015KT 9999 SCT040 07/M01 Q1030 NOSIG=
METAR EPWR 271530Z 28014KT 9999 SCT022 BKN025 06/02 Q1035=
METAR LHBP 271530Z 31015KT CAVOK 10/M01 Q1029 NOSIG=
METAR LHSM 271515Z AUTO 36012KT 9999 BKN041 08/M00 Q1033=
METAR LKBC 271530Z AUTO 29004KT 260V340 9999 OVC029 04/M01 Q1036=
METAR LKCV 271530Z 30009KT 9999 FEW019 BKN024 04/M00 Q1036 NOSIG RMK WHT WHT=
METAR LKKB 271530Z 30007KT 270V330 9999 SCT022 BKN027 05/M00 Q1036 NOSIG RMK BLU BLU=
METAR LKKU NIL
METAR LKKV 271530Z 27004KT 9999 OVC016 02/M01 Q1036 RMK REG QNH 1032=
METAR LKLN 271530Z AUTO 06008KT 9999 FEW026 OVC031 05/02 Q1036=
METAR LKMT 271530Z 34010KT 9999 BKN038 06/01 Q1034 NOSIG RMK REG QNH 1032=
METAR LKNA 271530Z 29013KT 9999 OVC023 02/M01 Q1034 NOSIG RMK WHT WHT=
METAR LKPD 271530Z 28013KT 9999 SCT020 05/01 Q1036 RMK BLACK=
METAR LKPJ 271530Z AUTO 33009KT 9999 OVC043 07/M00 Q1034=
METAR LKPR 271530Z 28006KT 9999 FEW017 BKN026 04/M00 Q1036 NOSIG RMK REG QNH 1032=
METAR LKTB 271530Z 30013KT 9999 SCT048 06/00 Q1034 NOSIG RMK REG QNH 1032=
METAR LKVO NIL
METAR LOWI 271520Z 09010KT 060V120 9999 FEW045 09/00 Q1032 NOSIG=
METAR LOWL 271520Z 28005KT 230V320 9999 FEW040 09/00 Q1035 NOSIG=
METAR LOWS 271520Z 03007KT 350V060 9999 FEW040 BKN046 07/M01 Q1035 NOSIG=
METAR LOWW 271520Z 32014KT 9999 FEW032 BKN040 06/M00 Q1034 NOSIG=
METAR LZIB 271530Z 32015KT 9999 FEW029 BKN044 07/01 Q1034 NOSIG=
METAR LZKZ 271530Z 01012KT 9999 FEW043 08/M00 Q1029 NOSIG=
METAR LZMC 271500Z 33016KT 9999 FEW021 BKN039 07/01 Q1034=
METAR LZPP 271530Z 33015KT 9999 FEW033 BKN039 07/01 Q1033=
METAR LZSL 271500Z 35010KT 9999 SCT045 08/M02 Q1030=
METAR LZTT 271530Z 31005KT 270V350 9999 FEW046 SCT063 05/M04 Q1028 NOSIG=
METAR LZZI 271530Z 01004KT 330V050 9999 BKN030 OVC037 06/00 Q1032=